createdAt,value
2022-12-01T00:01:03.093Z,100.00
2022-12-01T00:03:31.518Z,99.87
2022-12-01T00:06:03.553Z,100.00
2022-12-01T00:08:31.421Z,100.00
2022-12-01T00:11:12.176Z,100.00
2022-12-01T00:13:38.859Z,100.00
2022-12-01T00:16:16.445Z,100.00
2022-12-01T00:18:43.827Z,100.00
2022-12-01T00:21:15.072Z,100.00
2022-12-01T00:23:47.290Z,100.00
2022-12-01T00:26:14.766Z,100.00
2022-12-01T00:28:41.251Z,99.95
2022-12-01T00:31:11.959Z,100.00
2022-12-01T00:33:39.584Z,100.00
2022-12-01T00:36:07.241Z,100.00
2022-12-01T00:38:33.663Z,99.45
2022-12-01T00:41:00.043Z,99.66
2022-12-01T00:43:26.479Z,100.00
2022-12-01T00:45:53.027Z,100.00
2022-12-01T00:48:19.599Z,100.00
2022-12-01T00:50:46.006Z,100.00
2022-12-01T00:53:12.399Z,100.00
2022-12-01T00:55:40.115Z,100.00
2022-12-01T00:58:07.362Z,100.00
2022-12-01T01:00:34.635Z,100.00
2022-12-01T01:03:01.392Z,100.00
2022-12-01T01:05:27.766Z,99.62
2022-12-01T01:07:54.200Z,99.22
2022-12-01T01:10:20.673Z,99.66
2022-12-01T01:12:47.059Z,100.00
2022-12-01T01:15:13.453Z,100.00
2022-12-01T01:17:39.822Z,99.13
2022-12-01T01:20:07.039Z,99.28
2022-12-01T01:22:35.223Z,100.00
2022-12-01T01:25:01.790Z,100.00
2022-12-01T01:27:28.169Z,99.77
2022-12-01T01:29:54.563Z,99.41
2022-12-01T01:32:20.978Z,98.72
2022-12-01T01:34:47.338Z,99.35
2022-12-01T01:37:13.736Z,98.71
2022-12-01T01:39:40.112Z,98.34
2022-12-01T01:42:06.536Z,98.51
2022-12-01T01:44:51.076Z,98.30
2022-12-01T01:47:23.097Z,98.83
2022-12-01T01:49:49.930Z,98.36
2022-12-01T01:52:17.744Z,99.21
2022-12-01T01:54:48.104Z,98.81
2022-12-01T01:57:20.687Z,98.72
2022-12-01T01:59:52.135Z,98.79
2022-12-01T02:02:18.597Z,99.17
2022-12-01T02:04:53.927Z,98.66
2022-12-01T02:07:20.729Z,97.81
2022-12-01T02:09:47.675Z,98.25
2022-12-01T02:12:32.880Z,98.07
2022-12-01T02:15:08.751Z,98.45
2022-12-01T02:18:05.915Z,97.08
2022-12-01T02:21:00.760Z,97.79
2022-12-01T02:24:03.876Z,97.97
2022-12-01T02:26:39.799Z,97.19
2022-12-01T02:29:12.233Z,97.29
2022-12-01T02:31:47.046Z,97.29
2022-12-01T02:34:18.815Z,97.93
2022-12-01T02:36:53.972Z,97.14
2022-12-01T02:39:37.455Z,97.24
2022-12-01T02:42:11.588Z,97.76
2022-12-01T02:44:44.588Z,97.74
2022-12-01T02:47:17.045Z,96.30
2022-12-01T02:49:56.256Z,96.68
2022-12-01T02:52:23.924Z,96.70
2022-12-01T02:54:51.244Z,97.64
2022-12-01T02:57:17.904Z,96.78
2022-12-01T02:59:49.561Z,96.82
2022-12-01T03:02:27.981Z,97.03
2022-12-01T03:05:15.422Z,96.38
2022-12-01T03:08:14.187Z,96.23
2022-12-01T03:10:58.009Z,96.21
2022-12-01T03:13:36.200Z,96.22
2022-12-01T03:16:16.345Z,96.24
2022-12-01T03:18:53.228Z,96.06
2022-12-01T03:21:41.841Z,95.81
2022-12-01T03:24:10.669Z,96.00
2022-12-01T03:26:39.464Z,96.08
2022-12-01T03:29:10.722Z,96.91
2022-12-01T03:31:42.606Z,96.85
2022-12-01T03:34:27.011Z,96.52
2022-12-01T03:37:01.440Z,96.29
2022-12-01T03:39:34.512Z,96.36
2022-12-01T03:42:08.120Z,96.24
2022-12-01T03:44:40.562Z,96.81
2022-12-01T03:47:12.473Z,97.35
2022-12-01T03:49:40.671Z,96.15
2022-12-01T03:52:20.339Z,96.92
2022-12-01T03:55:12.063Z,97.24
2022-12-01T03:57:46.237Z,95.95
2022-12-01T04:00:14.556Z,95.83
2022-12-01T04:02:41.220Z,96.04
2022-12-01T04:05:11.359Z,96.09
2022-12-01T04:07:39.256Z,95.86
2022-12-01T04:10:07.362Z,95.75
2022-12-01T04:12:34.064Z,96.74
2022-12-01T04:15:03.602Z,96.46
2022-12-01T04:17:30.589Z,96.09
2022-12-01T04:19:56.951Z,95.77
2022-12-01T04:22:24.427Z,95.83
2022-12-01T04:24:50.823Z,95.61
2022-12-01T04:27:17.332Z,95.50
2022-12-01T04:29:43.871Z,95.34
2022-12-01T04:32:10.623Z,95.11
2022-12-01T04:34:37.015Z,94.93
2022-12-01T04:37:04.705Z,94.72
2022-12-01T04:39:31.112Z,94.48
2022-12-01T04:41:57.468Z,94.28
2022-12-01T04:44:23.823Z,94.50
2022-12-01T04:46:51.794Z,95.24
2022-12-01T04:49:19.186Z,95.08
2022-12-01T04:51:45.761Z,94.88
2022-12-01T04:54:12.247Z,95.22
2022-12-01T04:56:38.640Z,95.38
2022-12-01T04:59:05.035Z,94.30
2022-12-01T05:01:31.446Z,94.30
2022-12-01T05:03:57.912Z,95.06
2022-12-01T05:06:28.142Z,95.14
2022-12-01T05:08:57.452Z,95.49
2022-12-01T05:11:24.894Z,94.77
2022-12-01T05:13:51.297Z,94.74
2022-12-01T05:16:24.171Z,94.41
2022-12-01T05:19:12.957Z,94.90
2022-12-01T05:21:40.399Z,94.79
2022-12-01T05:24:07.715Z,94.72
2022-12-01T05:26:34.363Z,95.26
2022-12-01T05:29:01.013Z,95.16
2022-12-01T05:31:27.632Z,93.79
2022-12-01T05:33:54.058Z,93.68
2022-12-01T05:36:20.412Z,93.99
2022-12-01T05:38:46.765Z,94.36
2022-12-01T05:41:13.342Z,94.45
2022-12-01T05:43:39.732Z,94.22
2022-12-01T05:46:06.418Z,94.17
2022-12-01T05:48:32.903Z,94.35
2022-12-01T05:50:59.403Z,95.03
2022-12-01T05:53:25.819Z,94.97
2022-12-01T05:55:53.739Z,94.55
2022-12-01T05:58:21.928Z,95.57
2022-12-01T06:00:48.344Z,94.69
2022-12-01T06:03:14.693Z,94.89
2022-12-01T06:05:41.175Z,94.23
2022-12-01T06:08:07.889Z,95.02
2022-12-01T06:10:34.493Z,94.60
2022-12-01T06:13:00.948Z,94.25
2022-12-01T06:15:27.415Z,94.90
2022-12-01T06:17:53.815Z,94.74
2022-12-01T06:20:20.419Z,93.56
2022-12-01T06:22:46.866Z,93.65
2022-12-01T06:25:13.235Z,94.32
2022-12-01T06:27:39.595Z,93.81
2022-12-01T06:30:06.910Z,94.38
2022-12-01T06:32:33.366Z,94.19
2022-12-01T06:34:59.840Z,93.43
2022-12-01T06:37:27.690Z,94.42
2022-12-01T06:39:54.217Z,94.52
2022-12-01T06:42:20.796Z,95.45
2022-12-01T06:44:47.218Z,94.17
2022-12-01T06:47:13.997Z,94.35
2022-12-01T06:49:40.346Z,94.61
2022-12-01T06:52:06.804Z,94.34
2022-12-01T06:54:33.468Z,93.93
2022-12-01T06:56:59.873Z,94.58
2022-12-01T06:59:26.521Z,94.40
2022-12-01T07:01:53.168Z,93.35
2022-12-01T07:04:19.998Z,93.90
2022-12-01T07:06:46.462Z,94.15
2022-12-01T07:09:12.920Z,94.29
2022-12-01T07:11:39.453Z,94.26
2022-12-01T07:14:06.026Z,93.97
2022-12-01T07:16:32.594Z,94.38
2022-12-01T07:18:59.932Z,94.10
2022-12-01T07:21:26.418Z,94.09
2022-12-01T07:23:53.129Z,94.08
2022-12-01T07:26:19.639Z,94.00
2022-12-01T07:28:46.185Z,93.85
2022-12-01T07:31:22.079Z,92.20
2022-12-01T07:33:48.691Z,91.18
2022-12-01T07:36:15.639Z,92.21
2022-12-01T07:38:42.402Z,93.17
2022-12-01T07:41:10.135Z,91.51
2022-12-01T07:43:36.966Z,92.54
2022-12-01T07:46:08.923Z,93.80
2022-12-01T07:48:37.209Z,94.72
2022-12-01T07:51:08.135Z,94.71
2022-12-01T07:53:34.937Z,94.87
2022-12-01T07:56:05.676Z,93.73
2022-12-01T07:58:35.093Z,93.58
2022-12-01T08:01:10.124Z,94.83
2022-12-01T08:03:37.543Z,95.01
2022-12-01T08:06:05.895Z,93.47
2022-12-01T08:08:34.346Z,93.59
2022-12-01T08:11:02.943Z,94.01
2022-12-01T08:13:29.694Z,92.72
2022-12-01T08:15:56.379Z,92.80
2022-12-01T08:18:23.549Z,93.07
2022-12-01T08:20:50.988Z,93.80
2022-12-01T08:23:17.382Z,93.55
2022-12-01T08:25:43.782Z,93.85
2022-12-01T08:28:10.156Z,93.50
2022-12-01T08:30:36.516Z,93.74
2022-12-01T08:33:03.154Z,93.86
2022-12-01T08:35:29.624Z,92.54
2022-12-01T08:37:55.998Z,92.46
2022-12-01T08:40:22.626Z,93.32
2022-12-01T08:42:49.036Z,93.00
2022-12-01T08:45:15.506Z,92.52
2022-12-01T08:47:41.949Z,92.53
2022-12-01T08:50:08.736Z,93.63
2022-12-01T08:52:35.322Z,93.64
2022-12-01T08:55:02.022Z,92.79
2022-12-01T08:57:32.146Z,93.00
2022-12-01T08:59:58.609Z,92.57
2022-12-01T09:02:25.592Z,93.21
2022-12-01T09:04:52.117Z,93.57
2022-12-01T09:07:24.596Z,93.54
2022-12-01T09:09:52.902Z,93.87
2022-12-01T09:12:19.402Z,94.00
2022-12-01T09:14:48.131Z,94.49
2022-12-01T09:17:15.533Z,94.05
2022-12-01T09:19:42.996Z,94.31
2022-12-01T09:22:10.957Z,94.29
2022-12-01T09:24:38.152Z,94.15
2022-12-01T09:27:05.167Z,93.73
2022-12-01T09:29:32.098Z,93.52
2022-12-01T09:32:00.506Z,93.92
2022-12-01T09:34:27.948Z,93.50
2022-12-01T09:36:56.749Z,93.86
2022-12-01T09:39:24.067Z,92.96
2022-12-01T09:41:56.047Z,92.76
2022-12-01T09:44:30.200Z,92.95
2022-12-01T09:47:06.020Z,92.91
2022-12-01T09:50:02.454Z,92.63
2022-12-01T09:52:33.807Z,92.72
2022-12-01T09:55:01.256Z,92.86
2022-12-01T09:57:36.798Z,92.28
2022-12-01T10:00:11.421Z,91.29
2022-12-01T10:02:43.571Z,92.20
2022-12-01T10:05:23.864Z,92.91
2022-12-01T10:07:58.679Z,91.55
2022-12-01T10:10:36.504Z,91.22
2022-12-01T10:13:03.185Z,91.21
2022-12-01T10:15:43.659Z,91.10
2022-12-01T10:18:34.607Z,90.47
2022-12-01T10:21:24.013Z,90.22
2022-12-01T10:24:11.832Z,89.29
2022-12-01T10:26:50.796Z,87.41
2022-12-01T10:29:48.086Z,87.76
2022-12-01T10:32:19.159Z,87.22
2022-12-01T10:34:47.787Z,87.90
2022-12-01T10:37:22.373Z,87.81
2022-12-01T10:39:52.443Z,87.64
2022-12-01T10:42:34.242Z,85.38
2022-12-01T10:45:03.194Z,87.13
2022-12-01T10:47:29.771Z,87.03
2022-12-01T10:49:56.314Z,87.27
2022-12-01T10:52:40.987Z,87.81
2022-12-01T10:55:22.442Z,87.29
2022-12-01T10:57:49.908Z,87.96
2022-12-01T11:00:59.555Z,87.48
2022-12-01T11:03:28.868Z,87.35
2022-12-01T11:05:58.689Z,87.42
2022-12-01T11:08:40.799Z,86.33
2022-12-01T11:11:21.420Z,86.12
2022-12-01T11:13:48.124Z,86.55
2022-12-01T11:16:35.275Z,86.59
2022-12-01T11:19:32.849Z,86.23
2022-12-01T11:22:02.337Z,84.33
2022-12-01T11:24:58.526Z,83.39
2022-12-01T11:27:37.847Z,82.44
2022-12-01T11:30:22.540Z,81.15
2022-12-01T11:32:58.293Z,80.96
2022-12-01T11:35:28.131Z,80.12
2022-12-01T11:38:28.233Z,81.09
2022-12-01T11:40:56.858Z,79.00
2022-12-01T11:43:34.732Z,79.61
2022-12-01T11:46:05.286Z,80.57
2022-12-01T11:48:36.781Z,79.03
2022-12-01T11:51:27.078Z,80.82
2022-12-01T11:54:16.875Z,80.77
2022-12-01T11:56:45.125Z,80.84
2022-12-01T11:59:18.080Z,80.70
2022-12-01T12:01:55.405Z,82.30
2022-12-01T12:04:48.201Z,80.67
2022-12-01T12:07:43.157Z,80.70
2022-12-01T12:10:21.952Z,80.73
2022-12-01T12:12:56.578Z,80.18
2022-12-01T12:15:28.806Z,80.47
2022-12-01T12:18:22.317Z,80.54
2022-12-01T12:21:14.619Z,80.05
2022-12-01T12:24:08.347Z,80.02
2022-12-01T12:26:57.693Z,79.41
2022-12-01T12:29:56.540Z,79.43
2022-12-01T12:32:58.328Z,79.50
2022-12-01T12:35:39.952Z,79.23
2022-12-01T12:38:25.705Z,79.07
2022-12-01T12:40:57.846Z,79.28
2022-12-01T12:43:42.051Z,78.30
2022-12-01T12:46:11.897Z,78.53
2022-12-01T12:49:23.315Z,76.15
2022-12-01T12:52:31.059Z,75.23
2022-12-01T12:55:23.148Z,75.31
2022-12-01T13:01:43.896Z,74.29
2022-12-01T13:08:02.969Z,74.48
2022-12-01T13:10:52.243Z,72.89
2022-12-01T13:13:40.206Z,75.09
2022-12-01T13:16:13.393Z,74.93
2022-12-01T13:18:46.716Z,76.37
2022-12-01T13:21:17.571Z,74.25
2022-12-01T13:23:47.002Z,75.50
2022-12-01T13:26:16.580Z,75.63
2022-12-01T13:28:52.956Z,75.19
2022-12-01T13:31:23.286Z,74.96
2022-12-01T13:34:29.683Z,75.25
2022-12-01T13:37:05.135Z,75.68
2022-12-01T13:43:35.497Z,75.62
2022-12-01T13:46:45.714Z,75.37
2022-12-01T14:15:55.497Z,75.15
2022-12-01T14:18:52.542Z,74.61
2022-12-01T14:21:47.064Z,74.52
2022-12-01T14:24:41.332Z,74.46
2022-12-01T14:27:14.113Z,75.13
2022-12-01T14:29:44.729Z,75.06
2022-12-01T14:32:17.533Z,74.93
2022-12-01T14:34:44.516Z,75.03
2022-12-01T14:37:19.937Z,74.96
2022-12-01T14:40:05.959Z,75.38
2022-12-01T14:42:56.969Z,76.54
2022-12-01T14:45:57.724Z,77.33
2022-12-01T14:48:34.238Z,77.89
2022-12-01T14:51:14.693Z,77.87
2022-12-01T14:53:52.286Z,78.64
2022-12-01T14:56:22.529Z,80.01
2022-12-01T14:58:59.305Z,80.65
2022-12-01T15:01:34.025Z,81.47
2022-12-01T15:04:06.406Z,82.46
2022-12-01T15:06:42.704Z,83.09
2022-12-01T15:09:39.780Z,83.39
2022-12-01T15:12:12.331Z,84.51
2022-12-01T15:14:47.777Z,85.03
2022-12-01T15:17:48.636Z,85.84
2022-12-01T15:20:37.243Z,86.11
2022-12-01T15:23:15.442Z,86.56
2022-12-01T15:25:46.693Z,87.83
2022-12-01T15:28:22.521Z,87.83
2022-12-01T15:41:21.112Z,91.89
2022-12-01T15:43:41.927Z,91.16
2022-12-01T15:54:25.803Z,92.91
2022-12-01T15:56:54.070Z,93.24
2022-12-01T15:59:40.519Z,93.29
2022-12-01T16:05:35.595Z,93.81
2022-12-01T16:08:42.521Z,94.72
2022-12-01T16:11:21.940Z,94.87
2022-12-01T16:13:57.949Z,95.73
2022-12-01T16:16:34.266Z,95.63
2022-12-01T16:19:20.103Z,95.77
2022-12-01T16:21:50.000Z,97.18
2022-12-01T16:24:39.363Z,96.54
2022-12-01T16:27:17.117Z,95.91
2022-12-01T16:30:06.371Z,96.13
2022-12-01T16:32:38.651Z,95.64
2022-12-01T16:35:07.285Z,94.68
2022-12-01T16:37:33.899Z,94.83
2022-12-01T16:40:03.507Z,95.85
2022-12-01T16:42:29.992Z,95.35
2022-12-01T16:45:00.968Z,94.59
2022-12-01T16:47:31.623Z,96.21
2022-12-01T16:49:58.395Z,95.95
2022-12-01T16:55:39.060Z,95.93
2022-12-01T16:58:05.919Z,94.88
2022-12-01T17:00:33.160Z,94.76
2022-12-01T17:03:00.446Z,94.16
2022-12-01T17:05:27.731Z,94.00
2022-12-01T17:07:59.324Z,93.41
2022-12-01T17:10:31.592Z,94.07
2022-12-01T17:13:03.632Z,90.50
2022-12-01T17:15:30.328Z,92.55
2022-12-01T17:17:57.033Z,93.40
2022-12-01T17:20:23.629Z,93.25
2022-12-01T17:22:50.234Z,93.46
2022-12-01T17:25:20.017Z,94.35
2022-12-01T17:28:11.909Z,94.77
2022-12-01T17:30:41.376Z,92.61
2022-12-01T17:33:10.497Z,93.44
2022-12-01T17:35:50.078Z,91.93
2022-12-01T17:38:16.943Z,90.35
2022-12-01T17:40:43.579Z,91.63
2022-12-01T17:43:10.001Z,90.79
2022-12-01T17:45:41.926Z,89.01
2022-12-01T17:48:08.979Z,90.64
2022-12-01T17:50:38.520Z,92.47
2022-12-01T17:53:05.035Z,92.41
2022-12-01T17:55:31.591Z,93.21
2022-12-01T17:57:58.799Z,92.50
2022-12-01T18:00:25.278Z,91.13
2022-12-01T18:02:51.774Z,93.15
2022-12-01T18:05:18.511Z,92.90
2022-12-01T18:07:45.080Z,93.07
2022-12-01T18:10:11.740Z,92.13
2022-12-01T18:12:38.327Z,93.17
2022-12-01T18:15:06.352Z,92.56
2022-12-01T18:17:32.901Z,92.88
2022-12-01T18:19:59.368Z,92.80
2022-12-01T18:22:25.871Z,92.88
2022-12-01T18:24:52.813Z,91.62
2022-12-01T18:27:19.583Z,93.12
2022-12-01T18:29:46.029Z,92.98
2022-12-01T18:32:12.511Z,91.89
2022-12-01T18:34:39.230Z,92.02
2022-12-01T18:37:06.038Z,92.09
2022-12-01T18:39:32.931Z,91.62
2022-12-01T18:41:59.381Z,92.34
2022-12-01T18:44:25.950Z,92.94
2022-12-01T18:46:52.827Z,93.29
2022-12-01T18:49:19.701Z,92.40
2022-12-01T18:51:46.408Z,93.42
2022-12-01T18:54:16.037Z,93.29
2022-12-01T18:56:43.136Z,93.58
2022-12-01T18:59:11.095Z,93.67
2022-12-01T19:01:40.478Z,93.60
2022-12-01T19:04:08.533Z,94.02
2022-12-01T19:06:37.209Z,94.04
2022-12-01T19:09:06.085Z,93.82
2022-12-01T19:11:33.395Z,93.54
2022-12-01T19:13:59.906Z,93.23
2022-12-01T19:16:26.903Z,94.37
2022-12-01T19:18:53.476Z,93.69
2022-12-01T19:21:20.607Z,94.54
2022-12-01T19:23:47.923Z,94.17
2022-12-01T19:26:19.914Z,94.87
2022-12-01T19:28:47.175Z,94.72
2022-12-01T19:31:19.246Z,94.84
2022-12-01T19:33:46.596Z,94.40
2022-12-01T19:36:18.492Z,93.65
2022-12-01T19:38:45.441Z,93.52
2022-12-01T19:41:13.436Z,93.90
2022-12-01T19:43:40.279Z,94.12
2022-12-01T19:46:15.742Z,94.66
2022-12-01T19:48:43.280Z,94.65
2022-12-01T19:51:17.639Z,95.06
2022-12-01T19:53:44.374Z,95.21
2022-12-01T19:56:11.257Z,94.66
2022-12-01T19:58:37.730Z,94.75
2022-12-01T20:01:10.123Z,95.66
2022-12-01T20:03:38.043Z,94.95
2022-12-01T20:06:10.576Z,94.82
2022-12-01T20:08:37.143Z,95.57
2022-12-01T20:11:05.672Z,95.91
2022-12-01T20:13:36.635Z,94.94
2022-12-01T20:16:09.415Z,94.34
2022-12-01T20:18:37.252Z,93.99
2022-12-01T20:21:17.267Z,94.47
2022-12-01T20:23:46.381Z,95.58
2022-12-01T20:26:14.043Z,96.43
2022-12-01T20:28:41.035Z,96.13
2022-12-01T20:31:11.162Z,95.02
2022-12-01T20:33:38.897Z,94.28
2022-12-01T20:36:06.700Z,95.36
2022-12-01T20:38:33.648Z,96.06
2022-12-01T20:41:00.084Z,95.80
2022-12-01T20:43:26.619Z,95.74
2022-12-01T20:45:53.053Z,95.35
2022-12-01T20:48:19.469Z,95.88
2022-12-01T20:50:46.182Z,95.36
2022-12-01T20:53:12.650Z,96.21
2022-12-01T20:55:39.228Z,97.08
2022-12-01T20:58:08.455Z,96.69
2022-12-01T21:00:39.374Z,96.48
2022-12-01T21:03:06.345Z,96.88
2022-12-01T21:05:34.967Z,96.61
2022-12-01T21:08:01.877Z,96.80
2022-12-01T21:10:30.763Z,96.24
2022-12-01T21:13:20.212Z,95.77
2022-12-01T21:15:52.391Z,96.98
2022-12-01T21:18:26.508Z,97.27
2022-12-01T21:21:03.692Z,97.30
2022-12-01T21:23:30.297Z,97.22
2022-12-01T21:25:57.134Z,97.18
2022-12-01T21:28:25.987Z,98.05
2022-12-01T21:31:01.778Z,98.66
2022-12-01T21:33:35.363Z,97.26
2022-12-01T21:36:07.422Z,99.12
2022-12-01T21:38:33.896Z,99.48
2022-12-01T21:41:00.599Z,98.81
2022-12-01T21:43:27.000Z,96.55
2022-12-01T21:45:57.722Z,95.60
2022-12-01T21:48:24.312Z,96.75
2022-12-01T21:51:01.460Z,97.75
2022-12-01T21:53:37.235Z,97.46
2022-12-01T21:56:03.758Z,97.54
2022-12-01T21:58:35.275Z,98.13
2022-12-01T22:01:07.700Z,98.92
2022-12-01T22:03:43.327Z,99.19
2022-12-01T22:09:00.947Z,98.59
2022-12-01T22:11:29.467Z,99.30
2022-12-01T22:14:08.065Z,99.25
2022-12-01T22:16:41.754Z,98.46
2022-12-01T22:19:32.279Z,98.23
2022-12-01T22:22:02.952Z,97.89
2022-12-01T22:24:36.793Z,97.08
2022-12-01T22:27:23.432Z,97.89
2022-12-01T22:29:52.908Z,98.16
2022-12-01T22:32:32.974Z,98.26
2022-12-01T22:35:25.652Z,98.33
2022-12-01T22:38:05.341Z,98.96
2022-12-01T22:40:39.931Z,98.41
2022-12-01T22:43:21.548Z,100.00
2022-12-01T22:45:49.205Z,100.00
2022-12-01T22:48:24.462Z,98.41
2022-12-01T22:50:52.129Z,98.73
2022-12-01T22:53:26.978Z,98.61
2022-12-01T22:55:55.795Z,94.81
2022-12-01T22:58:34.963Z,95.91
2022-12-01T23:01:07.704Z,97.37
2022-12-01T23:03:34.192Z,98.05
2022-12-01T23:06:00.627Z,98.09
2022-12-01T23:08:27.010Z,98.20
2022-12-01T23:10:53.420Z,98.13
2022-12-01T23:13:22.332Z,97.70
2022-12-01T23:15:51.634Z,98.14
2022-12-01T23:18:22.689Z,98.63
2022-12-01T23:20:53.748Z,98.98
2022-12-01T23:23:25.512Z,99.23
2022-12-01T23:25:51.963Z,99.00
2022-12-01T23:28:19.440Z,98.60
2022-12-01T23:30:49.561Z,99.44
2022-12-01T23:33:30.243Z,99.69
2022-12-01T23:36:10.928Z,99.04
2022-12-01T23:38:45.226Z,98.75
2022-12-01T23:41:36.166Z,98.76
2022-12-01T23:44:27.536Z,97.88
2022-12-01T23:46:57.288Z,98.77
2022-12-01T23:49:31.231Z,99.39
2022-12-01T23:52:00.739Z,99.14
2022-12-01T23:54:30.683Z,99.20
2022-12-01T23:57:01.193Z,98.69
2022-12-01T23:59:29.958Z,98.46
